createdAt,value
2023-02-13T00:01:28.742Z,25.40
2023-02-13T00:03:58.688Z,26.67
2023-02-13T00:06:27.206Z,26.27
2023-02-13T00:08:55.570Z,26.80
2023-02-13T00:11:23.989Z,23.93
2023-02-13T00:13:52.369Z,22.07
2023-02-13T00:16:20.965Z,27.00
2023-02-13T00:18:49.282Z,24.00
2023-02-13T00:21:18.993Z,28.17
2023-02-13T00:23:47.358Z,22.60
2023-02-13T00:26:18.072Z,27.50
2023-02-13T00:28:46.810Z,29.30
2023-02-13T00:31:17.612Z,24.97
2023-02-13T00:33:46.202Z,24.67
2023-02-13T00:36:17.033Z,24.10
2023-02-13T00:38:47.361Z,24.87
2023-02-13T00:41:17.384Z,23.27
2023-02-13T00:43:46.083Z,26.13
2023-02-13T00:46:14.839Z,21.27
2023-02-13T00:48:43.496Z,24.93
2023-02-13T00:51:12.704Z,24.87
2023-02-13T00:53:41.197Z,25.37
2023-02-13T00:56:11.097Z,25.93
2023-02-13T00:58:39.918Z,23.27
2023-02-13T01:01:08.389Z,24.00
2023-02-13T01:03:36.855Z,24.53
2023-02-13T01:06:05.981Z,23.70
2023-02-13T01:08:34.909Z,20.20
2023-02-13T01:11:03.283Z,23.13
2023-02-13T01:13:33.076Z,22.93
2023-02-13T01:16:01.818Z,19.93
2023-02-13T01:18:30.580Z,30.93
2023-02-13T01:21:01.888Z,23.43
2023-02-13T01:23:34.785Z,24.17
2023-02-13T01:26:06.037Z,29.33
2023-02-13T01:28:36.008Z,23.57
2023-02-13T01:31:04.565Z,28.33
2023-02-13T01:33:32.994Z,27.93
2023-02-13T01:36:06.337Z,21.00
2023-02-13T01:38:34.747Z,24.60
2023-02-13T01:41:03.192Z,24.90
2023-02-13T01:43:50.104Z,24.03
2023-02-13T01:46:24.358Z,23.00
2023-02-13T01:48:57.229Z,23.57
2023-02-13T01:51:30.317Z,23.50
2023-02-13T01:54:05.437Z,25.17
2023-02-13T01:56:38.937Z,27.43
2023-02-13T01:59:14.475Z,28.90
2023-02-13T02:01:43.682Z,24.03
2023-02-13T02:04:17.512Z,21.60
2023-02-13T02:06:51.880Z,20.93
2023-02-13T02:09:24.904Z,21.77
2023-02-13T02:12:01.841Z,24.43
2023-02-13T02:14:31.732Z,22.53
2023-02-13T02:17:00.465Z,18.50
2023-02-13T02:19:41.591Z,20.67
2023-02-13T02:22:50.776Z,22.63
2023-02-13T02:26:06.504Z,16.90
2023-02-13T02:29:17.994Z,23.17
2023-02-13T02:32:13.026Z,20.20
2023-02-13T02:34:52.216Z,21.03
2023-02-13T02:37:41.245Z,21.73
2023-02-13T02:40:24.233Z,20.20
2023-02-13T02:43:08.211Z,20.40
2023-02-13T02:45:45.784Z,22.00
2023-02-13T02:48:49.640Z,17.67
2023-02-13T02:51:25.850Z,19.50
2023-02-13T02:54:25.713Z,19.87
2023-02-13T02:56:58.365Z,20.90
2023-02-13T02:59:47.316Z,19.77
2023-02-13T03:02:42.907Z,24.83
2023-02-13T03:05:40.084Z,16.43
2023-02-13T03:08:08.712Z,17.37
2023-02-13T03:10:57.224Z,18.23
2023-02-13T03:13:41.847Z,20.20
2023-02-13T03:16:35.840Z,18.07
2023-02-13T03:19:22.196Z,19.13
2023-02-13T03:22:16.384Z,17.53
2023-02-13T03:24:55.107Z,19.17
2023-02-13T03:27:55.527Z,21.40
2023-02-13T03:30:35.085Z,19.03
2023-02-13T03:33:25.123Z,17.07
2023-02-13T03:36:26.103Z,17.10
2023-02-13T03:39:01.525Z,20.13
2023-02-13T03:41:37.520Z,21.77
2023-02-13T03:44:15.930Z,18.47
2023-02-13T03:46:48.316Z,19.33
2023-02-13T03:49:41.192Z,31.27
2023-02-13T03:52:15.950Z,19.67
2023-02-13T03:55:08.841Z,19.73
2023-02-13T03:57:58.871Z,18.10
2023-02-13T04:00:29.353Z,21.03
2023-02-13T04:03:06.256Z,18.67
2023-02-13T04:05:43.099Z,18.70
2023-02-13T04:08:11.644Z,19.17
2023-02-13T04:10:50.353Z,20.70
2023-02-13T04:13:25.962Z,20.60
2023-02-13T04:16:01.481Z,26.73
2023-02-13T04:18:32.887Z,19.13
2023-02-13T04:21:04.866Z,18.30
2023-02-13T04:23:33.225Z,17.17
2023-02-13T04:26:08.521Z,19.63
2023-02-13T04:28:37.318Z,20.77
2023-02-13T04:31:06.411Z,19.87
2023-02-13T04:33:34.963Z,16.80
2023-02-13T04:36:03.372Z,15.23
2023-02-13T04:38:31.740Z,20.30
2023-02-13T04:41:00.250Z,18.67
2023-02-13T04:43:30.075Z,21.40
2023-02-13T04:45:58.650Z,19.93
2023-02-13T04:48:27.111Z,20.17
2023-02-13T04:50:59.075Z,19.87
2023-02-13T04:53:27.792Z,22.60
2023-02-13T04:55:56.151Z,17.03
2023-02-13T04:58:24.665Z,19.47
2023-02-13T05:00:54.360Z,22.53
2023-02-13T05:03:25.340Z,15.90
2023-02-13T05:05:53.657Z,21.27
2023-02-13T05:08:22.076Z,20.63
2023-02-13T05:10:50.414Z,19.00
2023-02-13T05:13:21.706Z,19.63
2023-02-13T05:15:50.536Z,22.27
2023-02-13T05:18:20.747Z,17.87
2023-02-13T05:21:09.682Z,21.07
2023-02-13T05:23:37.466Z,20.20
2023-02-13T05:26:06.394Z,18.93
2023-02-13T05:28:52.415Z,20.77
2023-02-13T05:31:23.258Z,18.73
2023-02-13T05:33:53.131Z,22.17
2023-02-13T05:36:21.466Z,20.03
2023-02-13T05:38:49.808Z,19.17
2023-02-13T05:41:18.214Z,19.60
2023-02-13T05:43:46.585Z,25.13
2023-02-13T05:46:15.012Z,21.77
2023-02-13T05:48:43.407Z,20.07
2023-02-13T05:51:13.098Z,17.20
2023-02-13T05:53:41.705Z,21.97
2023-02-13T05:56:10.125Z,19.97
2023-02-13T05:58:38.775Z,20.30
2023-02-13T06:01:07.645Z,19.90
2023-02-13T06:03:36.068Z,20.33
2023-02-13T06:06:05.212Z,19.93
2023-02-13T06:08:34.992Z,19.43
2023-02-13T06:11:03.609Z,20.70
2023-02-13T06:13:32.489Z,17.20
2023-02-13T06:16:00.889Z,20.93
2023-02-13T06:18:29.277Z,17.83
2023-02-13T06:20:57.933Z,19.03
2023-02-13T06:23:26.504Z,17.93
2023-02-13T06:25:56.377Z,18.17
2023-02-13T06:28:24.846Z,18.40
2023-02-13T06:30:53.345Z,19.80
2023-02-13T06:33:21.777Z,22.93
2023-02-13T06:35:50.196Z,18.30
2023-02-13T06:38:19.166Z,20.50
2023-02-13T06:40:48.194Z,19.50
2023-02-13T06:43:19.017Z,19.50
2023-02-13T06:45:48.132Z,22.53
2023-02-13T06:48:17.069Z,19.53
2023-02-13T06:50:45.383Z,22.40
2023-02-13T06:53:13.685Z,15.53
2023-02-13T06:55:42.017Z,20.40
2023-02-13T06:58:10.364Z,17.70
2023-02-13T07:00:40.093Z,21.57
2023-02-13T07:03:10.119Z,17.03
2023-02-13T07:05:41.788Z,16.57
2023-02-13T07:08:10.730Z,22.43
2023-02-13T07:10:39.684Z,19.60
2023-02-13T07:13:08.690Z,17.40
2023-02-13T07:15:37.909Z,16.57
2023-02-13T07:18:09.656Z,17.03
2023-02-13T07:20:40.644Z,17.27
2023-02-13T07:23:09.138Z,15.53
2023-02-13T07:25:37.647Z,15.73
2023-02-13T07:28:08.155Z,14.47
2023-02-13T07:30:37.191Z,13.53
2023-02-13T07:33:08.230Z,13.73
2023-02-13T07:35:37.849Z,13.90
2023-02-13T07:38:06.599Z,18.17
2023-02-13T07:40:34.968Z,12.87
2023-02-13T07:43:03.466Z,18.07
2023-02-13T07:45:31.911Z,14.50
2023-02-13T07:48:00.877Z,13.40
2023-02-13T07:50:31.189Z,15.03
2023-02-13T07:53:01.427Z,11.50
2023-02-13T07:55:31.026Z,12.73
2023-02-13T07:58:02.012Z,15.83
2023-02-13T08:00:30.737Z,12.43
2023-02-13T08:03:01.116Z,10.57
2023-02-13T08:05:33.095Z,12.30
2023-02-13T08:08:01.554Z,11.67
2023-02-13T08:10:47.594Z,11.40
2023-02-13T08:13:17.223Z,9.77
2023-02-13T08:15:45.676Z,12.83
2023-02-13T08:18:14.645Z,13.60
2023-02-13T08:20:44.425Z,8.83
2023-02-13T08:23:13.382Z,10.57
2023-02-13T08:25:41.890Z,8.50
2023-02-13T08:28:10.461Z,11.50
2023-02-13T08:30:38.935Z,9.23
2023-02-13T08:33:07.600Z,11.87
2023-02-13T08:35:36.382Z,10.47
2023-02-13T08:38:06.856Z,10.77
2023-02-13T08:40:35.807Z,10.40
2023-02-13T08:43:06.285Z,8.30
2023-02-13T08:45:35.600Z,9.63
2023-02-13T08:48:05.132Z,10.37
2023-02-13T08:50:36.157Z,6.43
2023-02-13T08:53:06.913Z,7.97
2023-02-13T08:55:35.333Z,7.57
2023-02-13T08:58:03.924Z,8.40
2023-02-13T09:00:32.987Z,8.53
2023-02-13T09:03:05.132Z,6.60
2023-02-13T09:05:33.595Z,8.53
2023-02-13T09:08:03.754Z,6.07
2023-02-13T09:10:34.217Z,5.37
2023-02-13T09:13:03.291Z,7.30
2023-02-13T09:15:32.255Z,6.27
2023-02-13T09:18:01.048Z,6.10
2023-02-13T09:20:29.476Z,9.30
2023-02-13T09:22:58.128Z,7.97
2023-02-13T09:25:26.873Z,8.93
2023-02-13T09:27:56.712Z,7.47
2023-02-13T09:30:25.193Z,7.50
2023-02-13T09:32:55.243Z,7.00
2023-02-13T09:35:24.886Z,6.33
2023-02-13T09:37:53.247Z,4.97
2023-02-13T09:40:28.924Z,5.23
2023-02-13T09:43:09.276Z,8.53
2023-02-13T09:45:39.339Z,7.20
2023-02-13T09:48:15.976Z,5.07
2023-02-13T09:50:44.366Z,5.00
2023-02-13T09:53:23.411Z,7.03
2023-02-13T09:56:05.750Z,6.60
2023-02-13T09:58:45.662Z,6.57
2023-02-13T10:01:31.300Z,6.07
2023-02-13T10:04:35.314Z,6.60
2023-02-13T10:07:21.608Z,7.70
2023-02-13T10:10:01.627Z,12.07
2023-02-13T10:12:58.457Z,7.63
2023-02-13T10:15:39.472Z,5.60
2023-02-13T10:18:14.237Z,7.83
2023-02-13T10:20:48.357Z,5.80
2023-02-13T10:23:26.696Z,6.97
2023-02-13T10:26:00.134Z,8.07
2023-02-13T10:28:38.548Z,5.90
2023-02-13T10:31:14.317Z,6.43
2023-02-13T10:33:50.369Z,5.93
2023-02-13T10:36:23.046Z,7.80
2023-02-13T10:39:01.582Z,5.87
2023-02-13T10:41:48.153Z,6.03
2023-02-13T10:44:39.810Z,7.00
2023-02-13T10:47:28.598Z,6.43
2023-02-13T10:50:14.345Z,6.60
2023-02-13T10:52:57.415Z,9.57
2023-02-13T10:55:55.242Z,6.33
2023-02-13T10:58:35.538Z,8.63
2023-02-13T11:01:10.860Z,7.53
2023-02-13T11:03:40.704Z,9.93
2023-02-13T11:06:15.588Z,8.40
2023-02-13T11:08:47.584Z,9.77
2023-02-13T11:11:34.902Z,10.30
2023-02-13T11:14:14.252Z,8.33
2023-02-13T11:16:51.817Z,7.50
2023-02-13T11:19:30.045Z,7.73
2023-02-13T11:22:04.027Z,9.80
2023-02-13T11:24:33.948Z,10.17
2023-02-13T11:27:09.110Z,9.57
2023-02-13T11:29:39.198Z,7.87
2023-02-13T11:32:26.655Z,6.30
2023-02-13T11:34:56.695Z,8.33
2023-02-13T11:37:29.067Z,9.63
2023-02-13T11:40:00.873Z,9.17
2023-02-13T11:42:32.693Z,9.87
2023-02-13T11:45:03.852Z,8.67
2023-02-13T11:47:40.392Z,9.37
2023-02-13T11:50:26.003Z,9.57
2023-02-13T11:53:00.677Z,8.80
2023-02-13T11:55:35.822Z,9.13
2023-02-13T11:58:25.310Z,9.27
2023-02-13T12:01:13.009Z,8.53
2023-02-13T12:03:43.364Z,9.50
2023-02-13T12:06:18.606Z,10.37
2023-02-13T12:08:50.392Z,11.30
2023-02-13T12:11:26.660Z,11.43
2023-02-13T12:13:56.361Z,13.37
2023-02-13T12:16:34.192Z,10.87
2023-02-13T12:19:07.342Z,10.40
2023-02-13T12:21:59.741Z,10.53
2023-02-13T12:24:48.071Z,12.20
2023-02-13T12:27:25.951Z,13.33
2023-02-13T12:30:19.080Z,12.07
2023-02-13T12:33:00.802Z,11.70
2023-02-13T12:35:50.269Z,9.30
2023-02-13T12:38:41.196Z,13.27
2023-02-13T12:41:21.066Z,12.03
2023-02-13T12:44:26.111Z,8.67
2023-02-13T12:47:07.464Z,9.37
2023-02-13T12:50:25.250Z,11.37
2023-02-13T12:53:39.103Z,12.73
2023-02-13T12:56:42.297Z,9.80
2023-02-13T12:59:18.682Z,12.20
2023-02-13T13:02:25.549Z,13.43
2023-02-13T13:05:13.655Z,9.37
2023-02-13T13:08:05.395Z,10.73
2023-02-13T13:10:58.779Z,11.80
2023-02-13T13:13:42.518Z,9.50
2023-02-13T13:16:24.082Z,8.90
2023-02-13T13:19:07.764Z,10.10
2023-02-13T13:21:46.678Z,9.27
2023-02-13T13:24:31.201Z,9.07
2023-02-13T13:27:03.426Z,11.57
2023-02-13T13:29:47.213Z,9.37
2023-02-13T13:32:21.151Z,11.17
2023-02-13T13:34:49.601Z,10.17
2023-02-13T13:37:30.308Z,11.77
2023-02-13T13:40:26.840Z,10.10
2023-02-13T13:43:04.562Z,9.50
2023-02-13T13:45:44.071Z,9.63
2023-02-13T13:49:04.341Z,10.10
2023-02-13T13:51:33.088Z,8.57
2023-02-13T13:54:36.630Z,9.60
2023-02-13T13:57:23.662Z,9.43
2023-02-13T14:00:27.385Z,10.60
2023-02-13T14:03:25.888Z,8.37
2023-02-13T14:06:05.286Z,10.40
2023-02-13T14:09:03.175Z,11.23
2023-02-13T14:11:40.839Z,9.43
2023-02-13T14:14:50.978Z,12.53
2023-02-13T14:17:56.783Z,12.17
2023-02-13T14:20:39.679Z,13.57
2023-02-13T14:23:15.934Z,9.63
2023-02-13T14:25:44.584Z,11.20
2023-02-13T14:28:24.698Z,9.50
2023-02-13T14:30:56.834Z,9.63
2023-02-13T14:33:31.474Z,11.63
2023-02-13T14:36:08.739Z,9.60
2023-02-13T14:38:37.782Z,11.47
2023-02-13T14:41:07.382Z,10.70
2023-02-13T14:43:48.226Z,11.90
2023-02-13T14:46:36.507Z,8.93
2023-02-13T14:49:14.713Z,13.57
2023-02-13T14:51:49.272Z,12.90
2023-02-13T14:54:27.565Z,9.17
2023-02-13T14:57:07.848Z,10.97
2023-02-13T14:59:41.509Z,10.50
2023-02-13T15:02:23.417Z,9.80
2023-02-13T15:04:59.807Z,10.27
2023-02-13T15:07:30.816Z,9.20
2023-02-13T15:10:03.204Z,8.70
2023-02-13T15:12:34.877Z,9.63
2023-02-13T15:15:19.799Z,9.60
2023-02-13T15:17:48.616Z,9.50
2023-02-13T15:20:27.741Z,14.50
2023-02-13T15:22:58.084Z,11.63
2023-02-13T15:25:35.035Z,8.90
2023-02-13T15:28:06.321Z,8.43
2023-02-13T15:30:37.083Z,8.83
2023-02-13T15:33:18.619Z,11.40
2023-02-13T15:35:55.557Z,8.13
2023-02-13T15:38:28.672Z,7.47
2023-02-13T15:41:03.418Z,9.60
2023-02-13T15:43:36.752Z,9.60
2023-02-13T15:46:07.982Z,10.97
2023-02-13T15:48:36.932Z,8.30
2023-02-13T15:51:08.587Z,7.93
2023-02-13T15:53:37.085Z,8.13
2023-02-13T15:56:07.013Z,9.60
2023-02-13T15:58:36.634Z,9.57
2023-02-13T16:01:08.980Z,7.90
2023-02-13T16:03:39.553Z,8.37
2023-02-13T16:06:14.411Z,6.43
2023-02-13T16:08:47.448Z,7.00
2023-02-13T16:11:29.289Z,7.83
2023-02-13T16:14:22.032Z,7.20
2023-02-13T16:16:55.969Z,7.93
2023-02-13T16:19:33.993Z,10.03
2023-02-13T16:22:08.963Z,10.87
2023-02-13T16:24:38.325Z,8.00
2023-02-13T16:27:16.393Z,6.83
2023-02-13T16:29:53.399Z,7.77
2023-02-13T16:32:29.798Z,6.77
2023-02-13T16:35:28.584Z,5.77
2023-02-13T16:38:02.370Z,10.50
2023-02-13T16:40:40.134Z,6.83
2023-02-13T16:43:52.044Z,13.40
2023-02-13T16:46:37.528Z,6.67
2023-02-13T16:49:32.933Z,8.63
2023-02-13T16:52:16.824Z,9.13
2023-02-13T16:54:56.565Z,6.77
2023-02-13T16:57:30.665Z,7.30
2023-02-13T17:00:09.776Z,9.57
2023-02-13T17:02:40.078Z,6.90
2023-02-13T17:05:23.274Z,8.57
2023-02-13T17:07:54.642Z,5.60
2023-02-13T17:10:28.291Z,8.70
2023-02-13T17:13:00.350Z,5.17
2023-02-13T17:15:33.470Z,5.43
2023-02-13T17:18:02.283Z,5.57
2023-02-13T17:20:36.302Z,7.97
2023-02-13T17:23:09.888Z,9.37
2023-02-13T17:25:39.950Z,5.87
2023-02-13T17:28:15.430Z,8.73
2023-02-13T17:30:44.755Z,6.50
2023-02-13T17:33:17.951Z,6.33
2023-02-13T17:35:46.581Z,5.32
2023-02-13T17:38:16.459Z,6.07
2023-02-13T17:40:46.907Z,6.47
2023-02-13T17:43:22.605Z,6.53
2023-02-13T17:45:51.595Z,7.30
2023-02-13T17:48:20.449Z,5.57
2023-02-13T17:50:50.313Z,5.70
2023-02-13T17:53:24.251Z,6.80
2023-02-13T17:55:54.637Z,7.23
2023-02-13T17:58:23.187Z,7.97
2023-02-13T18:00:52.523Z,9.00
2023-02-13T18:03:20.974Z,7.53
2023-02-13T18:05:50.055Z,6.43
2023-02-13T18:08:20.251Z,7.23
2023-02-13T18:10:48.734Z,5.60
2023-02-13T18:13:18.585Z,5.10
2023-02-13T18:15:47.322Z,8.80
2023-02-13T18:18:18.759Z,7.40
2023-02-13T18:20:47.273Z,6.97
2023-02-13T18:23:15.775Z,6.90
2023-02-13T18:25:44.277Z,7.70
2023-02-13T18:28:12.743Z,9.13
2023-02-13T18:30:43.928Z,6.60
2023-02-13T18:33:12.782Z,7.30
2023-02-13T18:35:42.180Z,7.53
2023-02-13T18:38:10.643Z,5.10
2023-02-13T18:40:39.451Z,5.13
2023-02-13T18:43:07.875Z,8.50
2023-02-13T18:45:37.864Z,11.27
2023-02-13T18:48:09.283Z,6.73
2023-02-13T18:50:40.961Z,6.20
2023-02-13T18:53:09.611Z,8.70
2023-02-13T18:55:38.093Z,6.70
2023-02-13T18:58:06.580Z,5.43
2023-02-13T19:00:35.034Z,6.23
2023-02-13T19:03:03.457Z,5.43
2023-02-13T19:05:33.215Z,6.53
2023-02-13T19:08:01.802Z,6.30
2023-02-13T19:10:31.189Z,6.90
2023-02-13T19:12:59.557Z,5.63
2023-02-13T19:15:28.133Z,7.40
2023-02-13T19:17:57.557Z,7.93
2023-02-13T19:20:26.062Z,7.67
2023-02-13T19:22:56.518Z,7.40
2023-02-13T19:25:25.019Z,7.40
2023-02-13T19:27:53.420Z,5.97
2023-02-13T19:30:22.281Z,8.57
2023-02-13T19:32:50.815Z,6.63
2023-02-13T19:35:20.355Z,5.30
2023-02-13T19:37:48.759Z,7.37
2023-02-13T19:40:19.203Z,7.03
2023-02-13T19:42:47.620Z,9.17
2023-02-13T19:45:16.254Z,8.23
2023-02-13T19:47:44.713Z,5.83
2023-02-13T19:50:13.304Z,5.77
2023-02-13T19:52:41.657Z,7.37
2023-02-13T19:55:10.759Z,8.23
2023-02-13T19:57:40.537Z,9.13
2023-02-13T20:00:10.400Z,7.47
2023-02-13T20:02:38.822Z,7.67
2023-02-13T20:05:08.904Z,7.60
2023-02-13T20:07:37.504Z,5.50
2023-02-13T20:10:09.706Z,7.20
2023-02-13T20:12:39.687Z,7.10
2023-02-13T20:15:08.940Z,8.87
2023-02-13T20:17:38.978Z,6.17
2023-02-13T20:20:10.576Z,6.53
2023-02-13T20:22:39.277Z,5.93
2023-02-13T20:25:08.075Z,6.03
2023-02-13T20:27:41.929Z,8.90
2023-02-13T20:30:17.005Z,8.57
2023-02-13T20:32:45.786Z,6.00
2023-02-13T20:35:14.165Z,6.30
2023-02-13T20:37:43.190Z,7.77
2023-02-13T20:40:13.482Z,8.63
2023-02-13T20:42:41.868Z,8.23
2023-02-13T20:45:12.369Z,8.13
2023-02-13T20:47:42.864Z,6.43
2023-02-13T20:50:12.078Z,7.03
2023-02-13T20:52:40.617Z,7.70
2023-02-13T20:55:09.772Z,6.80
2023-02-13T20:57:38.280Z,8.13
2023-02-13T21:00:09.443Z,5.43
2023-02-13T21:02:39.225Z,5.50
2023-02-13T21:05:08.036Z,8.37
2023-02-13T21:07:36.427Z,8.27
2023-02-13T21:10:05.807Z,6.07
2023-02-13T21:12:35.028Z,7.13
2023-02-13T21:15:03.902Z,6.83
2023-02-13T21:17:32.383Z,6.83
2023-02-13T21:20:02.224Z,8.67
2023-02-13T21:22:31.737Z,5.53
2023-02-13T21:25:00.346Z,5.33
2023-02-13T21:27:28.955Z,4.67
2023-02-13T21:29:57.542Z,6.43
2023-02-13T21:32:25.989Z,8.00
2023-02-13T21:34:56.770Z,7.77
2023-02-13T21:37:26.628Z,5.10
2023-02-13T21:39:55.324Z,7.60
2023-02-13T21:42:23.725Z,7.93
2023-02-13T21:44:52.285Z,8.20
2023-02-13T21:47:20.974Z,6.63
2023-02-13T21:49:50.015Z,8.10
2023-02-13T21:52:18.520Z,6.30
2023-02-13T21:54:49.621Z,6.67
2023-02-13T21:57:18.000Z,6.70
2023-02-13T21:59:46.388Z,8.17
2023-02-13T22:02:15.168Z,6.77
2023-02-13T22:04:43.910Z,7.00
2023-02-13T22:07:12.365Z,8.47
2023-02-13T22:09:40.980Z,5.30
2023-02-13T22:12:10.730Z,8.17
2023-02-13T22:14:39.317Z,4.77
2023-02-13T22:17:07.719Z,6.03
2023-02-13T22:19:36.108Z,4.93
2023-02-13T22:22:04.574Z,5.40
2023-02-13T22:24:33.714Z,7.60
2023-02-13T22:27:03.163Z,8.07
2023-02-13T22:29:32.889Z,9.73
2023-02-13T22:32:01.406Z,5.70
2023-02-13T22:34:29.837Z,8.60
2023-02-13T22:36:58.227Z,6.33
2023-02-13T22:39:26.693Z,6.30
2023-02-13T22:41:57.585Z,6.17
2023-02-13T22:44:26.042Z,8.47
2023-02-13T22:46:55.791Z,5.70
2023-02-13T22:49:24.524Z,5.50
2023-02-13T22:51:52.935Z,7.30
2023-02-13T22:54:21.413Z,8.50
2023-02-13T22:56:49.773Z,6.40
2023-02-13T22:59:18.121Z,7.33
2023-02-13T23:01:46.536Z,8.63
2023-02-13T23:04:16.596Z,6.33
2023-02-13T23:06:45.174Z,6.37
2023-02-13T23:09:13.673Z,6.83
2023-02-13T23:11:59.724Z,5.60
2023-02-13T23:14:28.135Z,7.17
2023-02-13T23:17:13.837Z,9.07
2023-02-13T23:19:43.740Z,8.53
2023-02-13T23:22:13.607Z,8.87
2023-02-13T23:24:42.074Z,5.00
2023-02-13T23:27:10.462Z,8.20
2023-02-13T23:29:39.056Z,6.33
2023-02-13T23:32:07.629Z,8.47
2023-02-13T23:34:37.171Z,7.00
2023-02-13T23:37:07.018Z,8.87
2023-02-13T23:39:35.344Z,8.40
2023-02-13T23:42:03.870Z,5.57
2023-02-13T23:44:32.197Z,7.37
2023-02-13T23:47:00.577Z,7.07
2023-02-13T23:49:28.925Z,5.33
2023-02-13T23:51:57.581Z,5.57
2023-02-13T23:54:28.027Z,4.63
2023-02-13T23:56:56.845Z,5.50
2023-02-13T23:59:25.902Z,6.33
